createdAt,value
2023-04-25T00:00:18.444Z,6.70
2023-04-25T00:02:45.694Z,6.70
2023-04-25T00:05:13.470Z,6.70
2023-04-25T00:07:40.642Z,6.70
2023-04-25T00:10:08.932Z,6.70
2023-04-25T00:12:36.996Z,6.70
2023-04-25T00:15:04.812Z,6.80
2023-04-25T00:17:32.492Z,6.60
2023-04-25T00:19:59.554Z,6.70
2023-04-25T00:22:26.555Z,6.70
2023-04-25T00:24:54.487Z,6.80
2023-04-25T00:27:21.543Z,6.70
2023-04-25T00:29:48.511Z,6.60
2023-04-25T00:32:15.583Z,6.70
2023-04-25T00:34:42.515Z,6.70
2023-04-25T00:39:37.005Z,6.60
2023-04-25T00:42:04.546Z,6.70
2023-04-25T00:44:33.313Z,6.70
2023-04-25T00:47:02.795Z,6.60
2023-04-25T00:49:29.851Z,6.60
2023-04-25T00:51:58.072Z,6.60
2023-04-25T00:54:25.671Z,6.60
2023-04-25T00:56:53.514Z,6.50
2023-04-25T00:59:21.575Z,6.50
2023-04-25T01:01:48.767Z,6.60
2023-04-25T01:04:16.033Z,6.50
2023-04-25T01:06:43.345Z,6.50
2023-04-25T01:09:11.306Z,6.50
2023-04-25T01:11:38.551Z,6.40
2023-04-25T01:14:05.530Z,6.50
2023-04-25T01:16:34.281Z,6.40
2023-04-25T01:19:01.620Z,6.40
2023-04-25T01:21:30.835Z,6.40
2023-04-25T01:23:58.669Z,6.40
2023-04-25T01:26:26.654Z,6.30
2023-04-25T01:28:53.850Z,6.20
2023-04-25T01:31:21.097Z,6.20
2023-04-25T01:33:49.824Z,6.20
2023-04-25T01:36:17.504Z,6.20
2023-04-25T01:38:45.069Z,6.10
2023-04-25T01:41:12.326Z,6.20
2023-04-25T01:43:39.633Z,6.10
2023-04-25T01:46:06.926Z,6.00
2023-04-25T01:48:33.956Z,5.90
2023-04-25T01:51:00.982Z,5.90
2023-04-25T01:53:28.515Z,5.90
2023-04-25T01:55:55.740Z,5.90
2023-04-25T01:58:22.727Z,5.80
2023-04-25T02:00:49.761Z,5.90
2023-04-25T02:03:17.074Z,5.80
2023-04-25T02:05:44.161Z,5.70
2023-04-25T02:08:11.435Z,5.70
2023-04-25T02:10:38.753Z,5.70
2023-04-25T02:13:06.355Z,5.70
2023-04-25T02:15:33.416Z,5.60
2023-04-25T02:18:01.401Z,5.60
2023-04-25T02:20:31.196Z,5.60
2023-04-25T02:22:58.327Z,5.70
2023-04-25T02:25:25.755Z,5.70
2023-04-25T02:27:52.952Z,5.80
2023-04-25T02:30:20.541Z,5.80
2023-04-25T02:32:48.061Z,5.80
2023-04-25T02:35:15.060Z,5.90
2023-04-25T02:37:43.463Z,5.90
2023-04-25T02:40:11.282Z,6.00
2023-04-25T02:42:38.259Z,6.00
2023-04-25T02:45:05.952Z,6.00
2023-04-25T02:47:33.191Z,6.10
2023-04-25T02:50:00.332Z,6.00
2023-04-25T02:52:27.374Z,5.90
2023-04-25T02:54:54.409Z,6.00
2023-04-25T02:57:21.473Z,5.90
2023-04-25T02:59:48.474Z,5.90
2023-04-25T03:02:15.915Z,5.90
2023-04-25T03:04:43.238Z,5.90
2023-04-25T03:07:10.934Z,5.90
2023-04-25T03:09:37.933Z,5.80
2023-04-25T03:12:05.418Z,5.80
2023-04-25T03:14:32.538Z,5.90
2023-04-25T03:16:59.521Z,5.80
2023-04-25T03:19:26.773Z,5.80
2023-04-25T03:21:54.642Z,5.80
2023-04-25T03:24:21.637Z,5.70
2023-04-25T03:26:48.653Z,5.70
2023-04-25T03:29:15.684Z,5.70
2023-04-25T03:31:42.820Z,5.80
2023-04-25T03:34:09.897Z,5.80
2023-04-25T03:36:36.866Z,5.80
2023-04-25T03:39:03.969Z,5.80
2023-04-25T03:41:31.159Z,5.80
2023-04-25T03:43:58.147Z,5.80
2023-04-25T03:46:25.238Z,5.80
2023-04-25T03:48:52.329Z,5.80
2023-04-25T03:51:19.311Z,5.80
2023-04-25T03:53:46.347Z,5.80
2023-04-25T03:56:13.317Z,5.80
2023-04-25T03:58:40.477Z,5.80
2023-04-25T04:01:08.886Z,5.80
2023-04-25T04:03:37.404Z,5.90
2023-04-25T04:06:09.916Z,5.80
2023-04-25T04:08:36.968Z,5.80
2023-04-25T04:11:04.239Z,5.80
2023-04-25T04:13:31.540Z,5.80
2023-04-25T04:15:59.126Z,5.80
2023-04-25T04:18:26.391Z,5.90
2023-04-25T04:20:53.388Z,5.80
2023-04-25T04:23:21.702Z,5.90
2023-04-25T04:25:48.936Z,5.90
2023-04-25T04:28:17.268Z,5.90
2023-04-25T04:30:48.032Z,5.90
2023-04-25T04:33:19.921Z,5.90
2023-04-25T04:35:47.932Z,5.90
2023-04-25T04:38:16.584Z,5.90
2023-04-25T04:40:44.141Z,5.90
2023-04-25T04:43:11.403Z,6.00
2023-04-25T04:45:41.594Z,6.00
2023-04-25T04:48:09.766Z,5.90
2023-04-25T04:50:36.887Z,6.00
2023-04-25T04:53:05.326Z,6.00
2023-04-25T04:55:32.398Z,6.00
2023-04-25T04:57:59.404Z,6.10
2023-04-25T05:00:29.506Z,6.10
2023-04-25T05:02:57.779Z,6.10
2023-04-25T05:05:25.158Z,6.20
2023-04-25T05:07:52.439Z,6.20
2023-04-25T05:10:21.216Z,6.20
2023-04-25T05:12:48.381Z,6.20
2023-04-25T05:15:15.825Z,6.30
2023-04-25T05:17:42.957Z,6.20
2023-04-25T05:20:10.846Z,6.30
2023-04-25T05:22:38.394Z,6.20
2023-04-25T05:25:06.448Z,6.30
2023-04-25T05:27:33.527Z,6.30
2023-04-25T05:30:00.872Z,6.30
2023-04-25T05:32:28.354Z,6.50
2023-04-25T05:34:55.582Z,6.50
2023-04-25T05:37:22.894Z,6.50
2023-04-25T05:39:49.887Z,6.60
2023-04-25T05:42:16.989Z,6.60
2023-04-25T05:44:44.063Z,6.70
2023-04-25T05:47:11.218Z,6.70
2023-04-25T05:49:38.354Z,6.80
2023-04-25T05:52:05.789Z,6.80
2023-04-25T05:54:32.775Z,6.80
2023-04-25T05:56:59.832Z,6.90
2023-04-25T05:59:26.925Z,6.90
2023-04-25T06:01:53.934Z,7.00
2023-04-25T06:04:21.388Z,7.10
2023-04-25T06:06:48.661Z,7.00
2023-04-25T06:09:15.644Z,7.00
2023-04-25T06:11:42.695Z,7.10
2023-04-25T06:14:09.876Z,7.20
2023-04-25T06:16:36.981Z,7.30
2023-04-25T06:19:03.948Z,7.40
2023-04-25T06:21:30.951Z,7.30
2023-04-25T06:23:57.948Z,7.20
2023-04-25T06:26:24.981Z,7.30
2023-04-25T06:28:51.989Z,7.30
2023-04-25T06:31:19.002Z,7.40
2023-04-25T06:33:46.236Z,7.30
2023-04-25T06:36:13.240Z,7.30
2023-04-25T06:38:40.264Z,7.40
2023-04-25T06:41:07.405Z,7.60
2023-04-25T06:43:34.575Z,7.80
2023-04-25T06:46:01.856Z,7.90
2023-04-25T06:48:29.198Z,7.80
2023-04-25T06:50:57.452Z,7.80
2023-04-25T06:53:24.589Z,7.90
2023-04-25T06:55:51.676Z,8.00
2023-04-25T06:58:19.480Z,7.90
2023-04-25T07:00:46.552Z,7.80
2023-04-25T07:03:13.706Z,7.90
2023-04-25T07:05:40.847Z,7.80
2023-04-25T07:08:07.861Z,7.80
2023-04-25T07:10:34.870Z,7.90
2023-04-25T07:13:01.846Z,8.00
2023-04-25T07:15:28.850Z,7.90
2023-04-25T07:17:55.941Z,8.00
2023-04-25T07:20:23.056Z,8.10
2023-04-25T07:22:51.123Z,8.00
2023-04-25T07:25:18.533Z,8.30
2023-04-25T07:27:45.576Z,8.50
2023-04-25T07:30:13.430Z,8.30
2023-04-25T07:32:40.810Z,8.30
2023-04-25T07:35:08.822Z,8.50
2023-04-25T07:37:36.928Z,8.50
2023-04-25T07:40:05.244Z,8.60
2023-04-25T07:42:32.416Z,8.70
2023-04-25T07:44:59.470Z,8.60
2023-04-25T07:47:26.608Z,8.40
2023-04-25T07:49:53.746Z,8.70
2023-04-25T07:52:20.833Z,8.80
2023-04-25T07:54:48.802Z,8.70
2023-04-25T07:57:15.935Z,8.80
2023-04-25T07:59:42.965Z,8.90
2023-04-25T08:02:09.992Z,9.10
2023-04-25T08:04:37.365Z,8.90
2023-04-25T08:07:04.573Z,9.40
2023-04-25T08:09:35.598Z,9.40
2023-04-25T08:12:03.265Z,9.60
2023-04-25T08:14:36.525Z,9.60
2023-04-25T08:17:04.664Z,9.40
2023-04-25T08:19:32.171Z,9.40
2023-04-25T08:21:59.226Z,9.40
2023-04-25T08:24:26.243Z,9.10
2023-04-25T08:26:53.523Z,9.10
2023-04-25T08:29:20.875Z,9.10
2023-04-25T08:31:49.220Z,9.10
2023-04-25T08:34:16.480Z,9.20
2023-04-25T08:36:43.559Z,9.00
2023-04-25T08:39:10.537Z,9.00
2023-04-25T08:41:38.757Z,9.00
2023-04-25T08:44:10.278Z,9.00
2023-04-25T08:46:43.348Z,9.00
2023-04-25T08:49:12.386Z,8.80
2023-04-25T08:51:51.892Z,8.80
2023-04-25T08:54:34.178Z,9.00
2023-04-25T08:57:05.402Z,9.10
2023-04-25T08:59:34.022Z,9.30
2023-04-25T09:02:02.011Z,9.20
2023-04-25T09:04:31.993Z,9.60
2023-04-25T09:06:59.871Z,9.50
2023-04-25T09:09:26.918Z,9.60
2023-04-25T09:11:56.509Z,9.60
2023-04-25T09:14:27.003Z,9.70
2023-04-25T09:16:57.097Z,9.40
2023-04-25T09:19:39.053Z,9.50
2023-04-25T09:22:08.472Z,9.90
2023-04-25T09:24:44.603Z,10.30
2023-04-25T09:27:14.365Z,10.10
2023-04-25T09:29:43.108Z,9.90
2023-04-25T09:32:17.028Z,10.10
2023-04-25T09:34:49.413Z,10.00
2023-04-25T09:37:21.663Z,10.10
2023-04-25T09:40:01.472Z,10.50
2023-04-25T09:42:32.356Z,10.70
2023-04-25T09:45:03.281Z,10.70
2023-04-25T09:47:30.390Z,10.80
2023-04-25T09:49:57.444Z,11.20
2023-04-25T09:52:26.344Z,11.10
2023-04-25T09:54:54.313Z,10.60
2023-04-25T09:57:24.143Z,10.40
2023-04-25T09:59:56.132Z,10.50
2023-04-25T10:02:27.260Z,10.50
2023-04-25T10:04:58.495Z,10.50
2023-04-25T10:07:31.189Z,10.50
2023-04-25T10:10:07.003Z,10.10
2023-04-25T10:12:35.205Z,9.90
2023-04-25T10:15:04.006Z,10.20
2023-04-25T10:17:32.609Z,10.50
2023-04-25T10:20:02.634Z,10.30
2023-04-25T10:22:38.095Z,10.40
2023-04-25T10:25:07.644Z,10.40
2023-04-25T10:27:35.680Z,10.20
2023-04-25T10:30:19.407Z,10.30
2023-04-25T10:32:48.214Z,11.00
2023-04-25T10:35:25.127Z,11.20
2023-04-25T10:38:11.843Z,11.40
2023-04-25T10:40:39.244Z,10.90
2023-04-25T10:43:34.843Z,11.30
2023-04-25T10:46:02.635Z,11.50
2023-04-25T10:48:32.052Z,11.50
2023-04-25T10:51:13.241Z,11.20
2023-04-25T10:53:40.295Z,10.80
2023-04-25T10:56:42.344Z,10.90
2023-04-25T10:59:14.137Z,10.60
2023-04-25T11:01:52.544Z,11.00
2023-04-25T11:04:32.037Z,10.80
2023-04-25T11:07:11.290Z,10.90
2023-04-25T11:09:42.185Z,10.70
2023-04-25T11:12:12.489Z,10.40
2023-04-25T11:17:08.252Z,10.80
2023-04-25T11:19:35.422Z,10.60
2023-04-25T11:22:04.401Z,10.80
2023-04-25T11:24:36.583Z,10.80
2023-04-25T11:27:07.175Z,11.20
2023-04-25T11:29:36.144Z,11.30
2023-04-25T11:32:03.672Z,11.20
2023-04-25T11:34:34.167Z,11.10
2023-04-25T11:37:05.220Z,10.90
2023-04-25T11:39:32.364Z,10.70
2023-04-25T11:42:00.003Z,10.30
2023-04-25T11:44:29.630Z,10.20
2023-04-25T11:46:56.819Z,10.20
2023-04-25T11:49:25.771Z,10.00
2023-04-25T11:51:52.927Z,10.00
2023-04-25T11:54:19.943Z,9.90
2023-04-25T11:56:47.363Z,9.80
2023-04-25T11:59:15.209Z,9.80
2023-04-25T12:01:50.551Z,9.80
2023-04-25T12:04:23.855Z,10.10
2023-04-25T12:06:54.258Z,9.90
2023-04-25T12:09:30.393Z,10.40
2023-04-25T12:12:00.034Z,10.60
2023-04-25T12:14:30.046Z,10.80
2023-04-25T12:16:59.320Z,10.40
2023-04-25T12:19:27.370Z,10.90
2023-04-25T12:21:58.631Z,10.80
2023-04-25T12:24:28.775Z,10.70
2023-04-25T12:27:09.423Z,10.90
2023-04-25T12:29:48.577Z,10.70
2023-04-25T12:32:18.048Z,10.70
2023-04-25T12:34:46.087Z,10.70
2023-04-25T12:37:13.871Z,10.60
2023-04-25T12:39:41.034Z,10.60
2023-04-25T12:42:13.266Z,11.00
2023-04-25T12:44:41.651Z,11.40
2023-04-25T12:47:08.861Z,11.30
2023-04-25T12:49:35.954Z,11.60
2023-04-25T12:52:03.041Z,11.90
2023-04-25T12:54:30.051Z,11.70
2023-04-25T12:56:57.367Z,12.30
2023-04-25T12:59:24.472Z,11.20
2023-04-25T13:01:51.605Z,10.90
2023-04-25T13:04:18.805Z,10.90
2023-04-25T13:06:46.062Z,10.60
2023-04-25T13:09:13.638Z,10.70
2023-04-25T13:11:42.489Z,10.80
2023-04-25T13:14:10.791Z,10.80
2023-04-25T13:16:37.910Z,10.90
2023-04-25T13:19:04.978Z,10.70
2023-04-25T13:21:34.919Z,10.70
2023-04-25T13:24:02.004Z,10.70
2023-04-25T13:26:29.144Z,10.60
2023-04-25T13:28:56.144Z,10.80
2023-04-25T13:31:23.159Z,11.10
2023-04-25T13:33:51.271Z,11.00
2023-04-25T13:36:18.479Z,10.70
2023-04-25T13:38:48.196Z,10.50
2023-04-25T13:41:19.641Z,10.70
2023-04-25T13:43:49.061Z,10.50
2023-04-25T13:46:35.265Z,10.80
2023-04-25T13:49:12.388Z,10.60
2023-04-25T13:51:41.349Z,11.10
2023-04-25T13:54:08.727Z,11.00
2023-04-25T13:56:36.004Z,11.40
2023-04-25T13:59:03.054Z,11.70
2023-04-25T14:01:32.219Z,11.20
2023-04-25T14:03:59.470Z,11.40
2023-04-25T14:06:27.147Z,11.10
2023-04-25T14:08:55.441Z,11.50
2023-04-25T14:11:22.527Z,11.20
2023-04-25T14:13:50.598Z,11.30
2023-04-25T14:16:18.116Z,11.10
2023-04-25T14:18:45.417Z,11.10
2023-04-25T14:21:12.492Z,11.30
2023-04-25T14:23:39.478Z,11.60
2023-04-25T14:26:06.713Z,11.70
2023-04-25T14:28:33.763Z,11.90
2023-04-25T14:31:01.614Z,11.90
2023-04-25T14:33:28.886Z,12.00
2023-04-25T14:35:56.086Z,11.80
2023-04-25T14:38:24.434Z,11.60
2023-04-25T14:40:51.850Z,11.40
2023-04-25T14:43:19.104Z,10.90
2023-04-25T14:45:46.412Z,10.60
2023-04-25T14:48:13.754Z,10.60
2023-04-25T14:50:40.955Z,10.70
2023-04-25T14:53:07.972Z,10.60
2023-04-25T14:55:34.998Z,10.50
2023-04-25T14:58:02.116Z,10.50
2023-04-25T15:00:29.238Z,10.60
2023-04-25T15:02:57.207Z,10.60
2023-04-25T15:05:24.430Z,10.70
2023-04-25T15:07:51.576Z,10.80
2023-04-25T15:10:20.494Z,10.80
2023-04-25T15:12:48.012Z,11.30
2023-04-25T15:15:22.688Z,11.30
2023-04-25T15:17:52.833Z,11.10
2023-04-25T15:20:19.946Z,10.80
2023-04-25T15:22:47.111Z,10.90
2023-04-25T15:25:14.164Z,11.40
2023-04-25T15:27:44.507Z,13.00
2023-04-25T15:30:17.344Z,13.10
2023-04-25T15:32:48.578Z,12.60
2023-04-25T15:35:16.320Z,12.60
2023-04-25T15:37:44.133Z,12.70
2023-04-25T15:40:16.326Z,13.40
2023-04-25T15:42:48.209Z,13.20
2023-04-25T15:45:17.845Z,12.60
2023-04-25T15:47:46.029Z,11.90
2023-04-25T15:50:16.221Z,11.40
2023-04-25T15:52:43.770Z,11.20
2023-04-25T15:55:12.965Z,11.10
2023-04-25T15:57:42.074Z,11.10
2023-04-25T16:00:13.580Z,10.90
2023-04-25T16:02:42.080Z,11.10
2023-04-25T16:05:11.318Z,11.40
2023-04-25T16:07:44.864Z,11.80
2023-04-25T16:10:13.287Z,12.20
2023-04-25T16:12:41.122Z,13.10
2023-04-25T16:15:08.853Z,13.50
2023-04-25T16:17:36.025Z,13.70
2023-04-25T16:20:09.789Z,12.70
2023-04-25T16:22:40.347Z,11.90
2023-04-25T16:25:08.678Z,12.20
2023-04-25T16:27:37.993Z,13.50
2023-04-25T16:30:10.694Z,12.40
2023-04-25T16:32:38.278Z,13.80
2023-04-25T16:35:06.004Z,14.40
2023-04-25T16:37:33.246Z,14.90
2023-04-25T16:40:00.555Z,14.50
2023-04-25T16:42:27.604Z,13.80
2023-04-25T16:44:54.575Z,14.50
2023-04-25T16:47:22.165Z,15.40
2023-04-25T16:49:49.234Z,15.50
2023-04-25T16:52:16.397Z,15.50
2023-04-25T16:54:43.754Z,15.00
2023-04-25T16:57:11.474Z,13.80
2023-04-25T16:59:39.693Z,12.50
2023-04-25T17:02:10.690Z,13.60
2023-04-25T17:04:37.918Z,14.00
2023-04-25T17:07:05.602Z,14.20
2023-04-25T17:09:32.992Z,13.40
2023-04-25T17:12:00.437Z,12.40
2023-04-25T17:14:28.006Z,12.10
2023-04-25T17:16:55.455Z,11.80
2023-04-25T17:19:22.769Z,11.30
2023-04-25T17:21:50.520Z,12.70
2023-04-25T17:24:18.214Z,13.60
2023-04-25T17:26:48.166Z,14.80
2023-04-25T17:29:15.922Z,15.30
2023-04-25T17:31:44.120Z,14.60
2023-04-25T17:34:16.505Z,14.40
2023-04-25T17:36:45.354Z,14.50
2023-04-25T17:39:14.779Z,14.60
2023-04-25T17:41:42.092Z,14.20
2023-04-25T17:44:09.185Z,14.00
2023-04-25T17:46:36.591Z,13.80
2023-04-25T17:49:03.736Z,14.30
2023-04-25T17:51:31.695Z,14.00
2023-04-25T17:53:58.773Z,14.10
2023-04-25T17:56:27.592Z,14.10
2023-04-25T17:58:55.796Z,13.90
2023-04-25T18:01:23.283Z,14.40
2023-04-25T18:03:51.703Z,13.80
2023-04-25T18:06:19.342Z,13.00
2023-04-25T18:08:47.162Z,11.70
2023-04-25T18:11:14.438Z,11.60
2023-04-25T18:13:41.667Z,11.30
2023-04-25T18:16:08.857Z,11.10
2023-04-25T18:18:36.943Z,10.80
2023-04-25T18:21:07.471Z,10.60
2023-04-25T18:23:34.898Z,10.40
2023-04-25T18:26:04.066Z,10.10
2023-04-25T18:28:31.205Z,9.90
2023-04-25T18:30:58.342Z,9.70
2023-04-25T18:33:25.435Z,9.70
2023-04-25T18:38:34.889Z,9.70
2023-04-25T18:41:26.783Z,9.70
2023-04-25T18:43:56.218Z,9.40
2023-04-25T18:46:23.663Z,9.30
2023-04-25T18:48:55.066Z,9.20
2023-04-25T18:51:24.133Z,9.20
2023-04-25T18:53:52.539Z,8.90
2023-04-25T18:56:22.682Z,9.00
2023-04-25T18:58:51.440Z,9.00
2023-04-25T19:01:19.068Z,8.90
2023-04-25T19:03:46.534Z,8.80
2023-04-25T19:06:13.638Z,8.80
2023-04-25T19:08:40.739Z,8.80
2023-04-25T19:11:20.545Z,8.60
2023-04-25T19:13:49.446Z,8.70
2023-04-25T19:16:18.031Z,8.70
2023-04-25T19:18:46.525Z,8.50
2023-04-25T19:21:14.037Z,8.50
2023-04-25T19:23:41.826Z,8.50
2023-04-25T19:26:09.002Z,8.30
2023-04-25T19:28:36.074Z,8.30
2023-04-25T19:31:03.197Z,8.30
2023-04-25T19:33:30.513Z,8.30
2023-04-25T19:35:57.586Z,8.30
2023-04-25T19:38:24.605Z,8.10
2023-04-25T19:40:51.689Z,8.10
2023-04-25T19:43:19.645Z,8.10
2023-04-25T19:45:46.923Z,7.90
2023-04-25T19:48:14.185Z,8.00
2023-04-25T19:50:41.732Z,8.00
2023-04-25T19:53:09.940Z,8.00
2023-04-25T19:55:37.186Z,7.90
2023-04-25T19:58:06.738Z,7.90
2023-04-25T20:00:33.906Z,7.80
2023-04-25T20:03:01.234Z,7.70
2023-04-25T20:05:28.406Z,7.70
2023-04-25T20:07:55.449Z,7.60
2023-04-25T20:10:23.044Z,7.50
2023-04-25T20:12:50.037Z,7.40
2023-04-25T20:15:19.070Z,7.30
2023-04-25T20:17:46.419Z,7.30
2023-04-25T20:20:13.832Z,7.30
2023-04-25T20:22:41.109Z,7.30
2023-04-25T20:25:10.035Z,7.30
2023-04-25T20:27:39.916Z,7.20
2023-04-25T20:30:09.285Z,7.20
2023-04-25T20:32:37.491Z,7.10
2023-04-25T20:35:08.637Z,7.10
2023-04-25T20:37:36.716Z,7.00
2023-04-25T20:40:07.808Z,7.00
2023-04-25T20:42:36.494Z,6.90
2023-04-25T20:45:07.758Z,6.90
2023-04-25T20:47:35.377Z,6.80
2023-04-25T20:50:05.934Z,6.80
2023-04-25T20:52:33.407Z,6.70
2023-04-25T20:55:00.974Z,6.60
2023-04-25T20:57:29.262Z,6.60
2023-04-25T20:59:57.496Z,6.40
2023-04-25T21:02:24.975Z,6.30
2023-04-25T21:04:52.024Z,6.30
2023-04-25T21:07:19.619Z,6.30
2023-04-25T21:09:47.914Z,6.40
2023-04-25T21:12:15.199Z,6.30
2023-04-25T21:14:42.232Z,6.30
2023-04-25T21:17:09.324Z,6.30
2023-04-25T21:19:36.358Z,6.20
2023-04-25T21:22:03.706Z,6.20
2023-04-25T21:24:33.044Z,6.10
2023-04-25T21:27:01.094Z,6.10
2023-04-25T21:29:28.250Z,6.00
2023-04-25T21:31:56.646Z,5.90
2023-04-25T21:34:23.828Z,6.00
2023-04-25T21:36:50.837Z,5.80
2023-04-25T21:39:17.901Z,5.70
2023-04-25T21:41:45.001Z,5.60
2023-04-25T21:44:14.424Z,5.50
2023-04-25T21:46:41.579Z,5.60
2023-04-25T21:49:08.711Z,5.60
2023-04-25T21:51:36.048Z,5.50
2023-04-25T21:54:05.478Z,5.30
2023-04-25T21:56:33.255Z,5.40
2023-04-25T21:59:00.268Z,5.40
2023-04-25T22:01:28.798Z,5.20
2023-04-25T22:03:56.209Z,5.10
2023-04-25T22:06:23.589Z,5.20
2023-04-25T22:08:51.014Z,5.10
2023-04-25T22:11:18.180Z,5.10
2023-04-25T22:13:45.582Z,4.90
2023-04-25T22:16:12.744Z,4.90
2023-04-25T22:18:40.580Z,4.80
2023-04-25T22:21:08.776Z,4.80
2023-04-25T22:23:37.212Z,4.80
2023-04-25T22:26:05.069Z,4.80
2023-04-25T22:28:33.100Z,4.80
2023-04-25T22:31:00.136Z,4.80
2023-04-25T22:33:27.614Z,4.80
2023-04-25T22:35:54.687Z,4.70
2023-04-25T22:38:22.052Z,4.70
2023-04-25T22:40:49.070Z,4.50
2023-04-25T22:43:16.289Z,4.50
2023-04-25T22:45:43.331Z,4.30
2023-04-25T22:48:10.484Z,4.40
2023-04-25T22:50:40.389Z,4.20
2023-04-25T22:53:10.100Z,4.10
2023-04-25T22:55:37.372Z,3.90
2023-04-25T22:58:07.469Z,3.90
2023-04-25T23:00:35.369Z,3.90
2023-04-25T23:03:06.289Z,3.90
2023-04-25T23:05:33.770Z,3.90
2023-04-25T23:08:00.784Z,3.90
2023-04-25T23:10:31.031Z,3.90
2023-04-25T23:13:00.505Z,3.80
2023-04-25T23:15:30.987Z,3.70
2023-04-25T23:17:58.912Z,3.70
2023-04-25T23:20:26.680Z,3.70
2023-04-25T23:22:54.780Z,3.60
2023-04-25T23:25:22.459Z,3.50
2023-04-25T23:27:49.620Z,3.50
2023-04-25T23:30:16.882Z,3.50
2023-04-25T23:32:44.032Z,3.50
2023-04-25T23:35:11.464Z,3.50
2023-04-25T23:37:43.105Z,3.50
2023-04-25T23:40:10.779Z,3.40
2023-04-25T23:42:39.275Z,3.40
2023-04-25T23:45:08.592Z,3.40
2023-04-25T23:47:36.745Z,3.30
2023-04-25T23:50:04.838Z,3.10
2023-04-25T23:52:32.045Z,3.10
2023-04-25T23:54:59.113Z,3.20
2023-04-25T23:57:26.199Z,3.20
2023-04-25T23:59:53.376Z,2.90
